ilmateenistus.ee keskkonnaagentuur.ee
EETN Tallinna lennuväli
FTEO31 EETN 241700 AAA
TAF AMD EETN 242118Z 2421/2518 02007KT 4000 BR BKN004 BKN010 TEMPO
    2421/2509 1000 RADZ BR OVC003 BECMG 2510/2512 18010KT 9999 BKN030=

METAR EETN 242220Z 03008KT 350V060 3600 DZ BR OVC004 13/12 Q1006=
Tallinna lennuväli
EEKA Kärdla lennuväli
METAR EEKA 242150Z NIL=
Kärdla lennuväli
EEKE Kuressaare lennuväli
METAR EEKE 242150Z AUTO 31007KT 280V350 9999NDV -RA NSC 11/10 Q1009=
Kuressaare lennuväli
EEPU Pärnu lennuväli
METAR EEPU 242150Z NIL=
Pärnu lennuväli
EETU Tartu lennuväli
FCEO32 EETN 242000
TAF EETU 242000Z 2421/2503 VRB02KT 6000 BKN005 BKN010 TEMPO 2421/2403
    1000 SHRA BR BKN003 SCT015CB BECMG 2422/2424 24010KT=

METAR EETU 242220Z 07004KT 9999 OVC006 13/13 Q1004=
Tartu lennuväli
EEEI Ämari lennuväli
METAR EEEI 242220Z AUTO 34008KT 310V010 7000 -DZ BR BKN005 BKN007 OVC015 12/12 Q1007=
Ämari lennuväli